Silvanopolis, Brazil
Current Conditions -  °F | °C
As of 6:00 PM on Friday 24 Oct 2014 (Local Time) from SBPJ Reporting Station
Scattered Clouds Scattered Clouds  
Wind Chill: 84°   Ceiling: Unl
Heat Index: 88°   Visibility: 6mi
Dew Point: 70°   Wind: 9mph
Humidity: 62%   Direction: 340°NNW
Pressure: 29.8"   Gusts: NA
Location:  11.15°S, 48.17°W
Report Text: SBPJ 242100Z 34008KT 9999 SCT025 29/21 Q1009
Loading
Personal Weather Stations






























Interactive Weather Map
Tropical Storm Tracking
New forecast layout! Learn more

10-Day Weather Forecast

Advertisements
Track Severe Weather on mobile